Time;durP1;ratioP1;P1;durP2;ratioP2;P2;SDS_P1;SDS_P2;PMS_P1;PMS_P2;Temp;Humidity;BMP_temperature;BMP_pressure;BME280_temperature;BME280_humidity;BME280_pressure;Samples;Min_cycle;Max_cycle;Signal;HPM_P1;HPM_P2
2024/02/25 00:01:49;;;;;;;5.60;1.17;;;27.40;39.00;;;;;;5133096;27;20063;-52
2024/02/25 00:04:15;;;;;;;4.45;0.95;;;27.40;39.50;;;;;;5132755;27;20497;-55
2024/02/25 00:06:45;;;;;;;9.10;1.20;;;27.40;39.30;;;;;;5132734;27;20435;-53
2024/02/25 00:09:12;;;;;;;9.60;1.10;;;27.40;39.10;;;;;;5132934;27;20067;-54
2024/02/25 00:11:41;;;;;;;7.20;1.30;;;27.20;39.10;;;;;;5132977;27;20561;-53
2024/02/25 00:14:08;;;;;;;7.32;1.13;;;27.30;39.70;;;;;;5132336;27;20146;-53
2024/02/25 00:16:35;;;;;;;6.15;1.23;;;27.30;39.50;;;;;;5132895;27;20064;-56
2024/02/25 00:19:02;;;;;;;8.50;1.40;;;27.10;39.80;;;;;;5132834;27;20174;-53
2024/02/25 00:21:29;;;;;;;13.20;2.05;;;27.20;39.90;;;;;;5132383;27;20117;-52
2024/02/25 00:23:56;;;;;;;9.48;1.10;;;27.40;40.40;;;;;;5132408;27;20059;-52
2024/02/25 00:26:22;;;;;;;20.30;1.85;;;27.30;39.30;;;;;;5132508;27;20102;-51
2024/02/25 00:28:48;;;;;;;6.75;1.55;;;27.20;39.60;;;;;;5132574;27;20150;-53
2024/02/25 00:31:15;;;;;;;12.45;1.58;;;27.00;39.40;;;;;;5132704;27;20095;-52
2024/02/25 00:33:41;;;;;;;10.38;1.50;;;26.90;40.60;;;;;;5132237;27;20448;-54
2024/02/25 00:36:08;;;;;;;7.13;1.52;;;26.70;40.10;;;;;;5137082;27;20059;-48
2024/02/25 00:38:35;;;;;;;4.10;1.23;;;26.50;40.50;;;;;;5136460;27;20501;-51
2024/02/25 00:41:01;;;;;;;3.95;1.20;;;26.40;40.80;;;;;;5136524;27;20066;-51
2024/02/25 00:43:28;;;;;;;4.95;1.08;;;26.30;41.20;;;;;;5136321;27;20076;-53
2024/02/25 00:45:55;;;;;;;9.57;2.10;;;26.20;41.50;;;;;;5136295;27;20102;-53
2024/02/25 00:48:21;;;;;;;13.48;1.77;;;26.20;41.70;;;;;;5133864;27;20067;-53
2024/02/25 00:50:47;;;;;;;3.60;1.05;;;26.20;42.00;;;;;;5114662;28;20075;-50
2024/02/25 00:53:16;;;;;;;4.68;1.35;;;26.00;42.00;;;;;;5114606;28;20103;-53
2024/02/25 00:55:42;;;;;;;7.97;2.22;;;25.90;42.00;;;;;;5116057;28;20080;-51
2024/02/25 00:58:09;;;;;;;9.02;2.15;;;25.90;42.50;;;;;;5105741;28;20069;-55
2024/02/25 01:00:35;;;;;;;6.50;1.75;;;25.80;42.30;;;;;;5093275;28;20065;-51
2024/02/25 01:03:02;;;;;;;9.35;2.33;;;25.80;43.30;;;;;;5095451;28;20130;-54
2024/02/25 01:05:28;;;;;;;45.00;20.27;;;25.60;42.60;;;;;;5117609;27;20075;-52
2024/02/25 01:07:55;;;;;;;39.95;20.38;;;25.50;43.00;;;;;;5113891;28;20068;-52
2024/02/25 01:10:21;;;;;;;5.55;2.20;;;25.30;43.30;;;;;;5115939;28;20068;-54
2024/02/25 01:12:48;;;;;;;23.85;19.40;;;25.20;43.30;;;;;;5115202;28;20112;-53
2024/02/25 01:15:14;;;;;;;13.25;3.47;;;25.10;43.70;;;;;;5113311;28;20179;-54
2024/02/25 01:17:41;;;;;;;10.32;2.63;;;25.00;43.90;;;;;;5115459;28;20068;-51
2024/02/25 01:20:08;;;;;;;11.27;2.38;;;24.90;44.20;;;;;;5098796;28;20072;-51
2024/02/25 01:22:36;;;;;;;15.60;3.22;;;24.80;44.50;;;;;;5095125;28;20061;-52
2024/02/25 01:25:04;;;;;;;19.52;4.07;;;24.80;44.80;;;;;;5094437;28;20512;-51
2024/02/25 01:27:30;;;;;;;14.45;3.78;;;24.70;45.20;;;;;;5094372;28;20072;-52
2024/02/25 01:29:57;;;;;;;21.05;13.07;;;24.70;45.30;;;;;;5094762;28;20065;-52
2024/02/25 01:32:23;;;;;;;18.90;4.32;;;24.50;45.60;;;;;;5094321;28;20140;-53
2024/02/25 01:34:50;;;;;;;17.58;4.10;;;24.40;46.00;;;;;;5110062;28;20075;-55
2024/02/25 01:37:16;;;;;;;15.30;5.05;;;24.30;46.00;;;;;;5094420;28;20569;-55
2024/02/25 01:39:43;;;;;;;17.75;7.30;;;24.20;46.50;;;;;;5108632;28;20083;-54
2024/02/25 01:42:09;;;;;;;20.83;8.75;;;24.00;46.40;;;;;;5114644;28;20068;-54
2024/02/25 01:44:53;;;;;;;26.17;8.05;;;23.90;46.30;;;;;;5114160;28;20419;-53
2024/02/25 01:47:20;;;;;;;36.45;8.27;;;23.80;46.50;;;;;;5094461;28;20073;-53
2024/02/25 01:49:47;;;;;;;22.33;6.00;;;23.70;46.70;;;;;;5094165;28;20156;-54
2024/02/25 01:52:15;;;;;;;17.60;4.82;;;23.50;46.90;;;;;;5094043;28;20064;-51
2024/02/25 01:54:41;;;;;;;24.40;6.30;;;23.40;46.90;;;;;;5092281;28;20074;-54
2024/02/25 01:57:08;;;;;;;19.15;4.50;;;23.30;47.00;;;;;;5093972;28;20071;-49
2024/02/25 01:59:35;;;;;;;20.67;4.47;;;23.20;47.30;;;;;;5093927;28;20151;-50
2024/02/25 02:02:01;;;;;;;21.10;4.53;;;23.10;47.80;;;;;;5109704;28;20449;-52
2024/02/25 02:04:28;;;;;;;16.25;5.65;;;23.00;48.00;;;;;;5093893;28;20087;-49
2024/02/25 02:06:56;;;;;;;18.58;5.75;;;22.90;48.90;;;;;;5109742;28;20146;-55
2024/02/25 02:09:22;;;;;;;47.90;22.80;;;22.90;49.40;;;;;;5094013;28;20068;-52
2024/02/25 02:11:58;;;;;;;61.28;25.63;;;22.80;49.30;;;;;;5093839;28;20499;-52
2024/02/25 02:14:25;;;;;;;44.73;7.70;;;22.70;49.40;;;;;;5093917;28;20476;-48
2024/02/25 02:16:52;;;;;;;40.90;8.32;;;22.60;49.70;;;;;;5094696;28;20076;-50
2024/02/25 02:19:19;;;;;;;26.10;6.80;;;22.60;50.40;;;;;;5093945;28;20080;-51
2024/02/25 02:21:45;;;;;;;34.22;8.35;;;22.50;50.90;;;;;;5094000;28;20064;-53
2024/02/25 02:24:14;;;;;;;24.25;7.05;;;22.50;51.50;;;;;;5093891;28;20072;-53
2024/02/25 02:26:41;;;;;;;40.13;7.38;;;22.40;52.30;;;;;;5093830;28;20073;-52
2024/02/25 02:29:08;;;;;;;47.60;8.05;;;22.30;52.70;;;;;;5093793;28;20064;-50
2024/02/25 02:31:34;;;;;;;36.47;8.15;;;22.20;52.80;;;;;;5092358;28;20493;-55
2024/02/25 02:34:01;;;;;;;33.70;9.07;;;22.20;52.90;;;;;;5102816;28;20552;-50
2024/02/25 02:36:27;;;;;;;26.80;7.32;;;22.10;53.20;;;;;;5113662;28;20065;-51
2024/02/25 02:38:53;;;;;;;26.70;7.75;;;22.00;53.90;;;;;;5114713;27;20497;-53
2024/02/25 02:41:23;;;;;;;48.97;9.18;;;22.00;54.20;;;;;;5110173;27;20087;-55
2024/02/25 02:43:49;;;;;;;38.63;8.90;;;21.90;55.30;;;;;;5107118;28;20190;-53
2024/02/25 02:46:16;;;;;;;52.65;9.95;;;21.80;55.50;;;;;;5116157;27;20075;-54
2024/02/25 02:48:42;;;;;;;31.92;9.15;;;21.70;55.20;;;;;;5117390;27;20520;-47
2024/02/25 02:51:09;;;;;;;35.20;9.10;;;21.70;55.60;;;;;;5114618;27;20074;-51
2024/02/25 02:53:36;;;;;;;27.90;8.88;;;21.60;55.80;;;;;;5108981;27;20092;-50
2024/02/25 02:56:02;;;;;;;34.58;9.13;;;21.50;56.10;;;;;;5124926;27;20071;-54
2024/02/25 02:58:29;;;;;;;35.80;9.23;;;21.50;56.40;;;;;;5110749;27;20109;-53
2024/02/25 03:00:55;;;;;;;36.20;8.98;;;21.40;56.20;;;;;;5112063;27;20064;-50
2024/02/25 03:03:22;;;;;;;51.05;10.45;;;21.50;56.40;;;;;;5108107;28;20065;-63
2024/02/25 03:05:48;;;;;;;35.75;9.52;;;21.50;56.50;;;;;;5111504;27;20118;-51
2024/02/25 03:08:15;;;;;;;37.03;10.23;;;21.50;56.30;;;;;;5111990;27;21228;-50
2024/02/25 03:10:42;;;;;;;39.38;8.95;;;21.40;56.20;;;;;;5102642;27;20073;-49
2024/02/25 03:13:09;;;;;;;37.33;9.60;;;21.40;58.50;;;;;;5104668;27;20117;-49
2024/02/25 03:15:35;;;;;;;40.15;8.77;;;21.40;58.50;;;;;;5108080;27;20075;-50
2024/02/25 03:18:02;;;;;;;41.80;9.05;;;21.40;58.20;;;;;;5114204;27;20080;-53
2024/02/25 03:20:29;;;;;;;48.92;10.38;;;21.40;58.20;;;;;;5108226;27;20151;-49
2024/02/25 03:22:55;;;;;;;53.80;9.80;;;21.30;58.10;;;;;;5116459;27;20116;-49
2024/02/25 03:25:22;;;;;;;66.35;12.10;;;21.30;57.90;;;;;;5109644;27;20068;-53
2024/02/25 03:27:50;;;;;;;50.33;10.57;;;21.20;58.00;;;;;;5105646;27;20064;-48
2024/02/25 03:30:17;;;;;;;39.25;11.10;;;21.20;59.30;;;;;;5111397;27;20072;-54
2024/02/25 03:32:43;;;;;;;48.35;11.68;;;21.20;58.40;;;;;;5105653;27;20191;-53
2024/02/25 03:35:10;;;;;;;55.75;11.75;;;21.20;58.80;;;;;;5111705;28;20072;-50
2024/02/25 03:37:38;;;;;;;52.00;12.07;;;21.20;58.90;;;;;;5098302;28;20430;-50
2024/02/25 03:40:06;;;;;;;48.33;11.32;;;21.20;58.80;;;;;;5098333;28;20076;-51
2024/02/25 03:42:32;;;;;;;43.22;11.27;;;21.30;58.80;;;;;;5110586;28;20072;-49
2024/02/25 03:44:58;;;;;;;44.75;11.23;;;21.30;58.90;;;;;;5111894;27;20064;-48
2024/02/25 03:47:25;;;;;;;67.38;12.20;;;21.20;60.50;;;;;;5131871;27;20108;-50
2024/02/25 03:49:51;;;;;;;51.67;11.40;;;21.10;60.60;;;;;;5117828;27;20068;-52
2024/02/25 03:52:18;;;;;;;57.97;11.52;;;21.00;60.10;;;;;;5100631;28;20079;-53
2024/02/25 03:54:47;;;;;;;50.53;12.82;;;21.00;60.70;;;;;;5112460;28;20091;-52
2024/02/25 03:57:14;;;;;;;42.08;11.48;;;21.00;60.60;;;;;;5115212;27;20072;-49
2024/02/25 03:59:40;;;;;;;64.40;13.73;;;20.90;60.40;;;;;;5108196;28;20099;-51
2024/02/25 04:02:06;;;;;;;54.30;11.88;;;20.90;60.70;;;;;;5114429;27;20582;-50
2024/02/25 04:04:33;;;;;;;42.40;11.60;;;20.90;60.70;;;;;;5119447;27;20099;-49
2024/02/25 04:06:59;;;;;;;58.53;13.55;;;20.80;60.70;;;;;;5106669;27;20064;-50
2024/02/25 04:09:26;;;;;;;54.75;13.57;;;20.80;60.90;;;;;;5103356;28;20143;-56
2024/02/25 04:11:52;;;;;;;60.28;14.57;;;20.70;61.40;;;;;;5093510;28;20118;-52
2024/02/25 04:14:19;;;;;;;49.35;14.95;;;20.70;61.30;;;;;;5094827;28;20149;-51
2024/02/25 04:16:45;;;;;;;58.30;16.02;;;20.60;63.30;;;;;;5113882;28;20068;-51
2024/02/25 04:19:12;;;;;;;66.43;17.55;;;20.60;62.60;;;;;;5110667;28;20083;-54
2024/02/25 04:21:39;;;;;;;57.97;18.13;;;20.60;62.10;;;;;;5117209;28;20076;-49
2024/02/25 04:24:06;;;;;;;52.47;17.17;;;20.50;62.00;;;;;;5110290;28;20119;-49
2024/02/25 04:26:32;;;;;;;69.47;19.40;;;20.40;63.90;;;;;;5113156;28;20096;-51
2024/02/25 04:28:59;;;;;;;122.70;22.13;;;20.40;62.60;;;;;;5122216;27;20530;-47
2024/02/25 04:31:25;;;;;;;107.65;21.38;;;20.40;62.90;;;;;;5111994;28;20068;-47
2024/02/25 04:33:52;;;;;;;117.60;23.33;;;20.50;63.50;;;;;;5119634;28;20091;-50
2024/02/25 04:36:18;;;;;;;107.45;22.33;;;20.40;62.60;;;;;;5129888;27;20063;-49
2024/02/25 04:38:46;;;;;;;65.45;19.85;;;20.40;64.00;;;;;;5123339;28;20068;-50
2024/02/25 04:41:13;;;;;;;70.13;20.63;;;20.40;64.10;;;;;;5109533;28;20417;-50
2024/02/25 04:43:40;;;;;;;71.20;21.35;;;20.50;64.40;;;;;;5109951;28;20429;-53
2024/02/25 04:46:06;;;;;;;58.70;19.63;;;20.50;64.30;;;;;;5109887;28;20076;-54
2024/02/25 04:48:33;;;;;;;75.55;19.60;;;20.50;63.20;;;;;;5103920;28;20069;-53
2024/02/25 04:51:01;;;;;;;67.72;20.27;;;20.50;63.00;;;;;;5089252;28;20082;-54
2024/02/25 04:53:27;;;;;;;68.68;18.92;;;20.50;63.00;;;;;;5091944;28;20496;-53
2024/02/25 04:55:54;;;;;;;71.15;20.00;;;20.50;63.20;;;;;;5106080;28;20463;-56
2024/02/25 04:58:20;;;;;;;70.95;19.90;;;20.50;63.20;;;;;;5115549;28;20540;-52
2024/02/25 05:00:47;;;;;;;85.18;22.10;;;20.50;63.60;;;;;;5123092;27;20064;-53
2024/02/25 05:03:13;;;;;;;51.85;19.30;;;20.50;63.50;;;;;;5109951;28;20145;-52
2024/02/25 05:05:40;;;;;;;67.22;22.15;;;20.50;64.70;;;;;;5109251;28;20492;-52
2024/02/25 05:08:06;;;;;;;82.18;22.27;;;20.50;63.40;;;;;;5109572;28;20096;-51
2024/02/25 05:10:33;;;;;;;68.88;22.75;;;20.40;63.30;;;;;;5112277;28;20399;-52
2024/02/25 05:12:59;;;;;;;77.38;22.20;;;20.40;63.70;;;;;;5109644;28;20553;-52
2024/02/25 05:15:28;;;;;;;72.70;22.98;;;20.40;64.30;;;;;;5108807;28;20072;-51
2024/02/25 05:17:55;;;;;;;82.28;25.65;;;20.40;63.90;;;;;;5106137;28;20073;-52
2024/02/25 05:20:21;;;;;;;87.82;27.35;;;20.30;63.60;;;;;;5110808;28;20120;-50
2024/02/25 05:22:48;;;;;;;79.18;26.30;;;20.40;63.30;;;;;;5115617;28;20064;-53
2024/02/25 05:25:14;;;;;;;88.18;30.33;;;20.40;64.10;;;;;;5115117;28;20060;-54
2024/02/25 05:27:41;;;;;;;98.78;28.48;;;20.30;63.10;;;;;;5117035;27;20121;-53
2024/02/25 05:30:08;;;;;;;92.15;27.27;;;20.30;62.70;;;;;;5118899;27;20079;-51
2024/02/25 05:32:37;;;;;;;96.88;27.38;;;20.30;62.40;;;;;;5128866;27;20457;-54
2024/02/25 05:35:06;;;;;;;94.95;27.88;;;20.40;62.60;;;;;;5099777;27;20076;-51
2024/02/25 05:37:33;;;;;;;79.55;25.63;;;20.40;63.30;;;;;;5094682;28;20076;-54
2024/02/25 05:40:00;;;;;;;73.72;26.05;;;20.40;64.30;;;;;;5104303;28;20441;-53
2024/02/25 05:42:27;;;;;;;84.30;27.13;;;20.30;64.30;;;;;;5113433;28;20076;-53
2024/02/25 05:44:53;;;;;;;85.25;26.75;;;20.30;63.20;;;;;;5115291;28;20061;-54
2024/02/25 05:47:20;;;;;;;98.85;27.08;;;20.30;63.10;;;;;;5119417;27;20429;-55
2024/02/25 05:49:47;;;;;;;100.05;28.38;;;20.30;63.10;;;;;;5135763;27;20071;-50
2024/02/25 05:52:13;;;;;;;81.55;27.38;;;20.20;63.80;;;;;;5132847;27;20072;-55
2024/02/25 05:54:40;;;;;;;109.88;31.85;;;20.20;63.60;;;;;;5134994;27;20475;-55
2024/02/25 05:57:06;;;;;;;97.15;32.50;;;20.20;64.80;;;;;;5100634;27;20432;-49
2024/02/25 05:59:33;;;;;;;110.60;30.25;;;20.20;65.80;;;;;;5094245;28;20068;-54
2024/02/25 06:01:59;;;;;;;112.18;30.60;;;20.20;65.30;;;;;;5093893;28;20077;-50
2024/02/25 06:04:26;;;;;;;82.30;28.92;;;20.20;65.10;;;;;;5093101;27;20065;-51
2024/02/25 06:06:53;;;;;;;86.18;33.90;;;20.10;65.80;;;;;;5111170;27;20123;-50
2024/02/25 06:09:20;;;;;;;105.85;32.97;;;20.10;66.00;;;;;;5114490;28;20458;-49
2024/02/25 06:11:48;;;;;;;89.70;31.08;;;20.10;64.80;;;;;;5114147;28;20060;-49
2024/02/25 06:14:17;;;;;;;83.57;28.85;;;19.90;63.90;;;;;;5102727;27;20578;-53
2024/02/25 06:16:43;;;;;;;78.93;27.13;;;19.90;63.60;;;;;;5103269;27;20068;-51
2024/02/25 06:19:10;;;;;;;72.57;24.50;;;19.90;62.70;;;;;;5102164;27;20635;-50
2024/02/25 06:21:37;;;;;;;65.35;21.58;;;19.80;62.40;;;;;;5110791;27;20068;-54
2024/02/25 06:24:03;;;;;;;70.25;17.83;;;19.80;63.30;;;;;;5103362;28;20084;-50
2024/02/25 06:26:30;;;;;;;57.58;15.30;;;19.70;62.50;;;;;;5100256;27;20073;-54
2024/02/25 06:28:58;;;;;;;57.78;16.20;;;19.70;62.40;;;;;;5092323;28;20076;-52
2024/02/25 06:31:26;;;;;;;57.42;16.17;;;19.70;62.70;;;;;;5101768;28;20067;-51
2024/02/25 06:33:53;;;;;;;53.83;13.95;;;19.70;62.40;;;;;;5112263;28;20182;-49
2024/02/25 06:36:20;;;;;;;57.75;13.65;;;19.70;62.40;;;;;;5112595;28;20064;-52
2024/02/25 06:38:47;;;;;;;41.20;12.52;;;19.60;63.20;;;;;;5118758;27;20067;-53
2024/02/25 06:41:22;;;;;;;50.78;12.50;;;19.60;63.10;;;;;;5111429;27;20071;-55
2024/02/25 06:43:51;;;;;;;53.33;11.32;;;19.50;62.90;;;;;;5116084;27;20473;-55
2024/02/25 06:46:17;;;;;;;50.38;11.65;;;19.60;62.90;;;;;;5102334;27;20070;-57
2024/02/25 06:48:44;;;;;;;58.13;21.55;;;19.50;62.60;;;;;;5105457;27;20107;-56
2024/02/25 06:51:20;;;;;;;50.97;15.57;;;19.60;62.50;;;;;;5110754;27;20432;-56
2024/02/25 06:53:47;;;;;;;47.80;12.93;;;19.50;62.00;;;;;;5106835;27;20188;-54
2024/02/25 06:56:15;;;;;;;36.75;11.40;;;19.60;63.80;;;;;;5112802;27;20076;-55
2024/02/25 06:58:43;;;;;;;49.97;11.25;;;19.60;64.00;;;;;;5109627;27;20079;-55
2024/02/25 07:01:09;;;;;;;49.72;12.27;;;19.60;63.90;;;;;;5106409;27;20083;-55
2024/02/25 07:03:36;;;;;;;65.57;14.95;;;19.50;63.40;;;;;;5109302;27;20110;-56
2024/02/25 07:06:02;;;;;;;59.50;23.30;;;19.40;64.80;;;;;;5114771;27;20637;-54
2024/02/25 07:08:29;;;;;;;64.57;22.33;;;19.40;63.70;;;;;;5113223;27;20063;-56
2024/02/25 07:10:55;;;;;;;68.20;26.63;;;19.40;63.50;;;;;;5107578;27;20067;-56
2024/02/25 07:13:22;;;;;;;69.43;24.92;;;19.40;64.10;;;;;;5108095;27;20203;-54
2024/02/25 07:15:48;;;;;;;62.30;24.30;;;19.50;63.90;;;;;;5100801;27;20073;-54
2024/02/25 07:18:15;;;;;;;82.80;25.33;;;19.50;64.90;;;;;;5106389;27;20068;-57
2024/02/25 07:20:41;;;;;;;99.18;41.88;;;19.40;65.00;;;;;;5105858;27;20531;-53
2024/02/25 07:23:07;;;;;;;73.32;26.63;;;19.40;65.00;;;;;;5102291;27;20064;-55
2024/02/25 07:25:34;;;;;;;70.15;24.27;;;19.40;66.40;;;;;;5109679;27;20117;-55
2024/02/25 07:28:01;;;;;;;78.57;22.65;;;19.30;66.20;;;;;;5107194;27;20515;-53
2024/02/25 07:30:27;;;;;;;76.80;22.30;;;19.30;65.00;;;;;;5104321;27;20084;-55
2024/02/25 07:32:54;;;;;;;62.78;20.20;;;19.30;64.50;;;;;;5105130;27;20562;-55
2024/02/25 07:35:20;;;;;;;72.45;22.45;;;19.30;64.30;;;;;;5108066;27;20265;-55
2024/02/25 07:37:49;;;;;;;60.53;20.17;;;19.30;65.10;;;;;;5105619;27;20528;-54
2024/02/25 07:40:15;;;;;;;77.20;22.60;;;19.30;67.40;;;;;;5107956;27;20104;-59
2024/02/25 07:42:42;;;;;;;68.57;21.80;;;19.30;66.80;;;;;;5107945;27;20507;-54
2024/02/25 07:45:09;;;;;;;66.88;22.58;;;19.30;66.30;;;;;;5107521;27;20073;-55
2024/02/25 07:47:35;;;;;;;68.47;22.08;;;19.20;66.30;;;;;;5103129;27;20526;-54
2024/02/25 07:50:02;;;;;;;66.95;22.63;;;19.20;67.50;;;;;;5105639;27;20093;-57
2024/02/25 07:52:29;;;;;;;67.15;22.00;;;19.20;66.70;;;;;;5106804;27;20064;-55
2024/02/25 07:54:55;;;;;;;65.63;21.05;;;19.20;66.50;;;;;;5105286;27;20172;-54
2024/02/25 07:57:22;;;;;;;68.60;21.13;;;19.20;66.80;;;;;;5104977;27;20068;-55
2024/02/25 07:59:48;;;;;;;66.43;22.35;;;19.10;66.70;;;;;;5099270;27;20077;-55
2024/02/25 08:02:14;;;;;;;65.47;21.15;;;19.20;66.60;;;;;;5106429;27;20067;-55
2024/02/25 08:04:41;;;;;;;72.00;20.10;;;19.20;66.60;;;;;;5102677;27;20079;-55
2024/02/25 08:07:08;;;;;;;59.47;17.02;;;19.20;66.80;;;;;;5107934;28;20075;-55
2024/02/25 08:09:34;;;;;;;50.40;13.13;;;19.30;67.00;;;;;;5105527;27;20101;-54
2024/02/25 08:12:01;;;;;;;45.88;14.32;;;19.30;66.20;;;;;;5105594;27;20076;-55
2024/02/25 08:14:27;;;;;;;46.88;13.65;;;19.20;67.10;;;;;;5112378;27;20087;-52
2024/02/25 08:16:54;;;;;;;44.78;10.07;;;19.10;68.80;;;;;;5108730;27;20080;-58
2024/02/25 08:19:21;;;;;;;52.83;11.65;;;19.00;67.00;;;;;;5110504;27;20072;-55
2024/02/25 08:21:47;;;;;;;42.08;11.93;;;19.00;66.50;;;;;;5106729;28;20076;-56
2024/02/25 08:24:13;;;;;;;53.95;12.32;;;19.00;67.70;;;;;;5105927;28;20075;-54
2024/02/25 08:26:40;;;;;;;53.03;12.80;;;19.00;67.60;;;;;;5106450;28;20080;-55
2024/02/25 08:29:06;;;;;;;46.08;11.25;;;19.00;67.50;;;;;;5101790;28;20068;-55
2024/02/25 08:31:33;;;;;;;55.40;12.13;;;19.10;67.70;;;;;;5107498;28;20074;-54
2024/02/25 08:33:59;;;;;;;45.55;11.52;;;19.00;68.60;;;;;;5112929;27;20117;-55
2024/02/25 08:36:26;;;;;;;53.75;13.18;;;19.00;68.20;;;;;;5105580;28;20096;-57
2024/02/25 08:38:52;;;;;;;49.55;12.35;;;19.00;67.90;;;;;;5107626;28;20075;-55
2024/02/25 08:41:19;;;;;;;49.90;12.50;;;19.00;67.50;;;;;;5110969;28;20099;-54
2024/02/25 08:43:45;;;;;;;56.50;13.52;;;18.90;68.60;;;;;;5108615;28;20129;-58
2024/02/25 08:46:11;;;;;;;49.15;12.90;;;18.90;67.90;;;;;;5113217;28;20071;-54
2024/02/25 08:48:38;;;;;;;50.67;13.43;;;18.90;67.90;;;;;;5109753;28;20072;-55
2024/02/25 08:51:04;;;;;;;57.97;12.23;;;19.00;68.20;;;;;;5106155;28;20072;-54
2024/02/25 08:53:31;;;;;;;57.30;13.45;;;19.00;68.60;;;;;;5105431;28;20095;-54
2024/02/25 08:55:57;;;;;;;50.17;14.88;;;18.90;67.90;;;;;;5102154;28;20072;-60
2024/02/25 08:58:24;;;;;;;72.88;16.63;;;18.90;67.80;;;;;;5109796;27;20068;-54
2024/02/25 09:00:50;;;;;;;55.35;15.55;;;18.90;67.50;;;;;;5109843;27;20154;-55
2024/02/25 09:03:17;;;;;;;43.15;15.32;;;19.00;67.40;;;;;;5110502;27;20464;-55
2024/02/25 09:05:43;;;;;;;63.83;17.38;;;19.00;66.90;;;;;;5109310;27;20506;-54
2024/02/25 09:08:10;;;;;;;66.45;18.27;;;18.90;67.00;;;;;;5108848;27;20082;-58
2024/02/25 09:10:36;;;;;;;59.75;17.50;;;19.00;67.00;;;;;;5110447;27;20482;-53
2024/02/25 09:13:03;;;;;;;73.18;17.80;;;19.00;66.80;;;;;;5101485;28;20146;-54
2024/02/25 09:15:32;;;;;;;54.45;16.58;;;19.00;66.50;;;;;;5103469;27;20138;-55
2024/02/25 09:18:00;;;;;;;71.57;15.90;;;19.00;66.00;;;;;;5109385;27;20072;-55
2024/02/25 09:20:29;;;;;;;53.80;13.90;;;19.00;65.50;;;;;;5109849;27;20088;-55
2024/02/25 09:22:56;;;;;;;44.80;13.88;;;18.90;65.40;;;;;;5117644;27;20068;-55
2024/02/25 09:25:23;;;;;;;50.10;12.20;;;18.90;65.10;;;;;;5109267;27;20470;-55
2024/02/25 09:27:49;;;;;;;43.92;12.80;;;18.90;64.80;;;;;;5112320;27;20167;-54
2024/02/25 09:30:16;;;;;;;56.67;12.68;;;18.90;64.70;;;;;;5105686;27;20067;-55
2024/02/25 09:32:43;;;;;;;47.80;11.57;;;18.90;64.50;;;;;;5101271;27;20104;-59
2024/02/25 09:35:13;;;;;;;33.88;10.95;;;18.90;64.50;;;;;;5108962;27;20072;-56
2024/02/25 09:37:39;;;;;;;41.70;11.05;;;18.90;63.90;;;;;;5108773;27;20087;-58
2024/02/25 09:40:09;;;;;;;36.72;10.82;;;18.90;63.60;;;;;;5105949;27;20609;-55
2024/02/25 09:42:37;;;;;;;38.90;11.43;;;18.90;63.30;;;;;;5108270;27;20125;-56
2024/02/25 09:45:06;;;;;;;37.55;11.02;;;18.90;63.30;;;;;;5105847;27;20520;-55
2024/02/25 09:47:34;;;;;;;52.22;11.73;;;18.90;62.80;;;;;;5103499;27;20065;-54
2024/02/25 09:50:01;;;;;;;44.53;10.98;;;18.90;63.00;;;;;;5101858;27;20128;-57
2024/02/25 09:52:29;;;;;;;39.22;11.18;;;18.80;63.00;;;;;;5105395;27;20069;-55
2024/02/25 09:54:56;;;;;;;53.17;11.68;;;18.80;63.50;;;;;;5111352;27;20091;-59
2024/02/25 09:57:23;;;;;;;34.47;9.90;;;18.90;63.70;;;;;;5114075;27;20108;-55
2024/02/25 09:59:49;;;;;;;30.02;9.50;;;18.80;62.90;;;;;;5113629;27;20144;-56
2024/02/25 10:02:16;;;;;;;30.15;10.10;;;18.80;62.80;;;;;;5108052;27;20639;-53
2024/02/25 10:04:43;;;;;;;29.58;10.30;;;18.80;62.70;;;;;;5103070;27;20060;-55
2024/02/25 10:07:19;;;;;;;30.13;8.73;;;18.80;62.80;;;;;;5112300;27;20075;-56
2024/02/25 10:09:49;;;;;;;33.30;9.32;;;18.70;62.80;;;;;;5110199;27;20445;-56
2024/02/25 10:12:16;;;;;;;29.27;9.48;;;18.70;62.90;;;;;;5105736;27;20061;-56
2024/02/25 10:14:42;;;;;;;29.40;9.52;;;18.70;62.80;;;;;;5103958;27;20088;-56
2024/02/25 10:17:10;;;;;;;30.05;9.38;;;18.70;62.80;;;;;;5112467;27;20117;-55
2024/02/25 10:19:36;;;;;;;28.92;9.10;;;18.60;63.30;;;;;;5107254;27;20158;-55
2024/02/25 10:22:10;;;;;;;33.70;9.43;;;18.60;64.00;;;;;;5107568;27;20072;-55
2024/02/25 10:24:39;;;;;;;26.67;9.88;;;18.50;64.60;;;;;;5106508;27;20155;-56
2024/02/25 10:27:13;;;;;;;27.30;10.57;;;18.40;64.50;;;;;;5110881;27;20509;-56
2024/02/25 10:29:53;;;;;;;28.58;10.50;;;18.40;65.70;;;;;;5107803;27;20118;-55
2024/02/25 10:32:24;;;;;;;31.95;10.77;;;18.20;66.70;;;;;;5108917;27;20072;-56
2024/02/25 10:34:52;;;;;;;32.85;10.88;;;18.20;65.60;;;;;;5108225;27;20142;-56
2024/02/25 10:37:24;;;;;;;37.30;11.05;;;18.20;66.10;;;;;;5103278;27;20514;-55
2024/02/25 10:39:52;;;;;;;30.90;8.73;;;18.20;66.30;;;;;;5098480;27;20119;-54
2024/02/25 10:42:24;;;;;;;26.55;8.55;;;18.20;65.70;;;;;;5115289;27;20521;-52
2024/02/25 10:44:56;;;;;;;25.17;7.47;;;18.20;65.60;;;;;;5105613;27;20536;-58
2024/02/25 10:47:23;;;;;;;32.13;6.88;;;18.20;65.60;;;;;;5108044;27;20506;-51
2024/02/25 10:49:52;;;;;;;21.50;6.97;;;18.20;65.30;;;;;;5104348;27;20070;-54
2024/02/25 10:52:21;;;;;;;22.85;5.75;;;18.20;64.80;;;;;;5100708;27;20366;-54
2024/02/25 10:54:51;;;;;;;29.77;6.30;;;18.20;64.30;;;;;;5105084;27;20092;-55
2024/02/25 10:57:19;;;;;;;15.10;4.90;;;18.20;64.40;;;;;;5106235;27;20117;-57
2024/02/25 10:59:47;;;;;;;19.40;4.72;;;18.20;63.40;;;;;;5106683;27;20071;-53
2024/02/25 11:02:17;;;;;;;23.27;4.70;;;18.20;64.00;;;;;;5105311;27;20063;-52
2024/02/25 11:04:45;;;;;;;25.70;5.13;;;18.20;64.00;;;;;;5098565;27;20068;-55
2024/02/25 11:07:12;;;;;;;17.50;4.85;;;18.20;65.20;;;;;;5109789;27;20096;-57
2024/02/25 11:09:38;;;;;;;24.67;5.13;;;18.20;65.90;;;;;;5102477;27;20064;-51
2024/02/25 11:12:25;;;;;;;20.45;4.40;;;18.00;65.50;;;;;;5113035;27;20101;-56
2024/02/25 11:15:05;;;;;;;23.13;4.60;;;18.00;65.90;;;;;;5108245;27;20091;-54
2024/02/25 11:17:38;;;;;;;19.55;4.25;;;18.00;66.70;;;;;;5101092;27;20313;-57
2024/02/25 11:20:07;;;;;;;16.63;4.72;;;18.00;65.70;;;;;;5112170;27;20486;-55
2024/02/25 11:22:44;;;;;;;21.17;4.45;;;17.90;65.80;;;;;;5102048;27;20537;-52
2024/02/25 11:25:32;;;;;;;24.67;4.55;;;17.90;66.20;;;;;;5107961;27;20091;-54
2024/02/25 11:28:03;;;;;;;26.35;6.70;;;17.90;66.80;;;;;;5101320;27;20082;-45
2024/02/25 11:30:35;;;;;;;21.35;9.80;;;18.00;66.10;;;;;;5102653;27;20456;-49
2024/02/25 11:33:02;;;;;;;27.00;7.20;;;18.20;65.10;;;;;;5117823;27;20103;-50
2024/02/25 11:35:31;;;;;;;33.05;5.63;;;18.40;64.50;;;;;;5106361;27;20083;-48
2024/02/25 11:38:03;;;;;;;15.13;4.70;;;18.70;64.10;;;;;;5114203;27;20072;-49
2024/02/25 11:40:31;;;;;;;15.15;3.75;;;18.80;63.70;;;;;;5102487;27;20128;-48
2024/02/25 11:42:57;;;;;;;17.05;4.05;;;18.70;63.40;;;;;;5110921;27;20113;-47
2024/02/25 11:45:24;;;;;;;16.90;4.35;;;18.80;63.90;;;;;;5106606;27;20159;-48
2024/02/25 11:47:51;;;;;;;19.25;3.88;;;18.70;63.80;;;;;;5104472;27;20416;-46
2024/02/25 11:50:17;;;;;;;13.20;3.95;;;18.60;64.10;;;;;;5107550;27;20113;-49
2024/02/25 11:53:03;;;;;;;15.25;3.53;;;18.60;64.20;;;;;;5107613;27;20076;-51
2024/02/25 11:55:29;;;;;;;15.02;3.78;;;18.70;64.30;;;;;;5107757;27;20174;-53
2024/02/25 11:57:56;;;;;;;19.10;4.22;;;18.70;64.30;;;;;;5111172;27;20096;-49
2024/02/25 12:00:23;;;;;;;11.93;4.00;;;18.70;64.40;;;;;;5111424;27;20068;-48
2024/02/25 12:02:50;;;;;;;16.20;4.32;;;18.60;64.50;;;;;;5099757;28;20095;-47
2024/02/25 12:05:17;;;;;;;26.02;5.05;;;18.70;65.10;;;;;;5113169;27;20064;-48
2024/02/25 12:07:55;;;;;;;17.58;6.13;;;18.80;64.90;;;;;;5106564;28;20075;-48
2024/02/25 12:10:26;;;;;;;24.92;7.40;;;18.90;64.40;;;;;;5098843;28;20159;-52
2024/02/25 12:12:54;;;;;;;28.02;8.43;;;18.90;64.90;;;;;;5110467;27;20122;-52
2024/02/25 12:15:25;;;;;;;25.33;8.63;;;18.70;65.30;;;;;;5108455;28;20117;-51
2024/02/25 12:17:52;;;;;;;21.08;8.20;;;18.60;65.90;;;;;;5103919;28;20068;-50
2024/02/25 12:20:19;;;;;;;21.70;7.43;;;18.50;65.70;;;;;;5106293;28;20079;-51
2024/02/25 12:22:46;;;;;;;14.05;7.05;;;18.60;65.80;;;;;;5109333;28;20401;-51
2024/02/25 12:25:19;;;;;;;17.83;6.60;;;18.60;66.60;;;;;;5105025;28;20064;-48
2024/02/25 12:27:48;;;;;;;10.77;5.63;;;18.50;66.80;;;;;;5106898;28;20088;-47
2024/02/25 12:30:15;;;;;;;22.23;6.22;;;18.40;67.00;;;;;;5109919;27;20095;-46
2024/02/25 12:32:42;;;;;;;22.02;6.82;;;18.20;66.90;;;;;;5110672;27;20072;-47